sensor_id;sensor_type;location;lat;lon;timestamp;temperature;humidity
15127;DHT22;7664;52.008;4.748;2022-07-29T00:01:09;17.30;99.90
15127;DHT22;7664;52.008;4.748;2022-07-29T00:03:45;17.30;99.90
15127;DHT22;7664;52.008;4.748;2022-07-29T00:06:13;17.30;99.90
15127;DHT22;7664;52.008;4.748;2022-07-29T00:08:43;17.30;99.90
15127;DHT22;7664;52.008;4.748;2022-07-29T00:11:11;17.20;99.90
15127;DHT22;7664;52.008;4.748;2022-07-29T00:13:39;17.20;99.90
15127;DHT22;7664;52.008;4.748;2022-07-29T00:16:07;17.20;99.90
15127;DHT22;7664;52.008;4.748;2022-07-29T00:18:35;17.20;99.90
15127;DHT22;7664;52.008;4.748;2022-07-29T00:21:03;17.10;99.90
15127;DHT22;7664;52.008;4.748;2022-07-29T00:23:31;17.10;99.90
15127;DHT22;7664;52.008;4.748;2022-07-29T00:26:03;17.10;99.90
15127;DHT22;7664;52.008;4.748;2022-07-29T00:28:31;17.10;99.90
15127;DHT22;7664;52.008;4.748;2022-07-29T00:30:59;17.10;99.90
15127;DHT22;7664;52.008;4.748;2022-07-29T00:33:28;17.10;99.90
15127;DHT22;7664;52.008;4.748;2022-07-29T00:35:56;17.10;99.90
15127;DHT22;7664;52.008;4.748;2022-07-29T00:38:23;17.10;99.90
15127;DHT22;7664;52.008;4.748;2022-07-29T00:40:51;17.10;99.90
15127;DHT22;7664;52.008;4.748;2022-07-29T00:43:20;17.10;99.90
15127;DHT22;7664;52.008;4.748;2022-07-29T00:45:48;17.10;99.90
15127;DHT22;7664;52.008;4.748;2022-07-29T00:48:16;17.10;99.90
15127;DHT22;7664;52.008;4.748;2022-07-29T00:50:44;17.10;99.90
15127;DHT22;7664;52.008;4.748;2022-07-29T00:53:12;17.10;99.90
15127;DHT22;7664;52.008;4.748;2022-07-29T00:55:40;17.10;99.90
15127;DHT22;7664;52.008;4.748;2022-07-29T00:58:08;17.10;99.90
15127;DHT22;7664;52.008;4.748;2022-07-29T01:00:37;17.10;99.90
15127;DHT22;7664;52.008;4.748;2022-07-29T01:03:07;17.00;99.90
15127;DHT22;7664;52.008;4.748;2022-07-29T01:05:35;17.10;99.90
15127;DHT22;7664;52.008;4.748;2022-07-29T01:08:17;17.00;99.90
15127;DHT22;7664;52.008;4.748;2022-07-29T01:10:46;17.00;99.90
15127;DHT22;7664;52.008;4.748;2022-07-29T01:13:16;17.00;99.90
15127;DHT22;7664;52.008;4.748;2022-07-29T01:15:49;17.00;99.90
15127;DHT22;7664;52.008;4.748;2022-07-29T01:18:24;17.00;99.90
15127;DHT22;7664;52.008;4.748;2022-07-29T01:21:12;16.90;99.90
15127;DHT22;7664;52.008;4.748;2022-07-29T01:23:59;16.90;99.90
15127;DHT22;7664;52.008;4.748;2022-07-29T01:26:42;16.90;99.90
15127;DHT22;7664;52.008;4.748;2022-07-29T01:29:24;16.80;99.90
15127;DHT22;7664;52.008;4.748;2022-07-29T01:32:05;16.90;99.90
15127;DHT22;7664;52.008;4.748;2022-07-29T01:34:49;16.90;99.90
15127;DHT22;7664;52.008;4.748;2022-07-29T01:37:20;16.80;99.90
15127;DHT22;7664;52.008;4.748;2022-07-29T01:39:52;16.80;99.90
15127;DHT22;7664;52.008;4.748;2022-07-29T01:42:26;16.70;99.90
15127;DHT22;7664;52.008;4.748;2022-07-29T01:45:00;16.70;99.90
15127;DHT22;7664;52.008;4.748;2022-07-29T01:47:35;16.80;99.90
15127;DHT22;7664;52.008;4.748;2022-07-29T01:50:08;16.70;99.90
15127;DHT22;7664;52.008;4.748;2022-07-29T01:52:42;16.70;99.90
15127;DHT22;7664;52.008;4.748;2022-07-29T01:55:17;16.70;99.90
15127;DHT22;7664;52.008;4.748;2022-07-29T01:57:48;16.70;99.90
15127;DHT22;7664;52.008;4.748;2022-07-29T02:00:18;16.70;99.90
15127;DHT22;7664;52.008;4.748;2022-07-29T02:02:47;16.60;99.90
15127;DHT22;7664;52.008;4.748;2022-07-29T02:05:18;16.60;99.90
15127;DHT22;7664;52.008;4.748;2022-07-29T02:07:47;16.60;99.90
15127;DHT22;7664;52.008;4.748;2022-07-29T02:10:17;16.80;99.90
15127;DHT22;7664;52.008;4.748;2022-07-29T02:12:54;16.60;99.90
15127;DHT22;7664;52.008;4.748;2022-07-29T02:15:24;16.60;99.90
15127;DHT22;7664;52.008;4.748;2022-07-29T02:17:58;16.60;99.90
15127;DHT22;7664;52.008;4.748;2022-07-29T02:20:28;16.60;99.90
15127;DHT22;7664;52.008;4.748;2022-07-29T02:22:58;16.60;99.90
15127;DHT22;7664;52.008;4.748;2022-07-29T02:25:27;16.60;99.90
15127;DHT22;7664;52.008;4.748;2022-07-29T02:28:05;16.60;99.90
15127;DHT22;7664;52.008;4.748;2022-07-29T02:30:36;16.50;99.90
15127;DHT22;7664;52.008;4.748;2022-07-29T02:33:08;16.50;99.90
15127;DHT22;7664;52.008;4.748;2022-07-29T02:35:38;16.90;99.90
15127;DHT22;7664;52.008;4.748;2022-07-29T02:38:10;16.50;99.90
15127;DHT22;7664;52.008;4.748;2022-07-29T02:40:57;16.50;99.90
15127;DHT22;7664;52.008;4.748;2022-07-29T02:43:26;16.50;99.90
15127;DHT22;7664;52.008;4.748;2022-07-29T02:45:57;16.40;99.90
15127;DHT22;7664;52.008;4.748;2022-07-29T02:48:38;16.40;99.90
15127;DHT22;7664;52.008;4.748;2022-07-29T02:51:14;16.40;99.90
15127;DHT22;7664;52.008;4.748;2022-07-29T02:54:07;16.40;99.90
15127;DHT22;7664;52.008;4.748;2022-07-29T02:56:38;16.40;99.90
15127;DHT22;7664;52.008;4.748;2022-07-29T02:59:10;16.50;99.90
15127;DHT22;7664;52.008;4.748;2022-07-29T03:01:43;16.30;99.90
15127;DHT22;7664;52.008;4.748;2022-07-29T03:04:13;16.30;99.90
15127;DHT22;7664;52.008;4.748;2022-07-29T03:06:43;16.30;99.90
15127;DHT22;7664;52.008;4.748;2022-07-29T03:09:12;16.30;99.90
15127;DHT22;7664;52.008;4.748;2022-07-29T03:11:41;16.30;99.90
15127;DHT22;7664;52.008;4.748;2022-07-29T03:14:17;16.30;99.90
15127;DHT22;7664;52.008;4.748;2022-07-29T03:16:49;16.30;99.90
15127;DHT22;7664;52.008;4.748;2022-07-29T03:19:18;16.30;99.90
15127;DHT22;7664;52.008;4.748;2022-07-29T03:21:46;16.30;99.90
15127;DHT22;7664;52.008;4.748;2022-07-29T03:24:30;16.30;99.90
15127;DHT22;7664;52.008;4.748;2022-07-29T03:26:58;16.30;99.90
15127;DHT22;7664;52.008;4.748;2022-07-29T03:29:26;16.30;99.90
15127;DHT22;7664;52.008;4.748;2022-07-29T03:32:03;16.20;99.90
15127;DHT22;7664;52.008;4.748;2022-07-29T03:34:35;16.20;99.90
15127;DHT22;7664;52.008;4.748;2022-07-29T03:37:03;16.20;99.90
15127;DHT22;7664;52.008;4.748;2022-07-29T03:39:36;16.20;99.90
15127;DHT22;7664;52.008;4.748;2022-07-29T03:42:07;16.20;99.90
15127;DHT22;7664;52.008;4.748;2022-07-29T03:44:37;16.50;99.90
15127;DHT22;7664;52.008;4.748;2022-07-29T03:47:08;16.10;99.90
15127;DHT22;7664;52.008;4.748;2022-07-29T03:49:38;16.10;99.90
15127;DHT22;7664;52.008;4.748;2022-07-29T03:52:07;16.10;99.90
15127;DHT22;7664;52.008;4.748;2022-07-29T03:54:35;16.10;99.90
15127;DHT22;7664;52.008;4.748;2022-07-29T03:57:04;16.10;99.90
15127;DHT22;7664;52.008;4.748;2022-07-29T03:59:33;16.10;99.90
15127;DHT22;7664;52.008;4.748;2022-07-29T04:02:03;16.00;99.90
15127;DHT22;7664;52.008;4.748;2022-07-29T04:04:34;16.00;99.90
15127;DHT22;7664;52.008;4.748;2022-07-29T04:07:03;16.00;99.90
15127;DHT22;7664;52.008;4.748;2022-07-29T04:09:31;15.90;99.90
15127;DHT22;7664;52.008;4.748;2022-07-29T04:11:59;16.00;99.90
15127;DHT22;7664;52.008;4.748;2022-07-29T04:14:30;15.90;99.90
15127;DHT22;7664;52.008;4.748;2022-07-29T04:16:58;16.30;99.90
15127;DHT22;7664;52.008;4.748;2022-07-29T04:19:26;15.90;99.90
15127;DHT22;7664;52.008;4.748;2022-07-29T04:21:56;15.90;99.90
15127;DHT22;7664;52.008;4.748;2022-07-29T04:24:24;15.90;99.90
15127;DHT22;7664;52.008;4.748;2022-07-29T04:26:52;15.90;99.90
15127;DHT22;7664;52.008;4.748;2022-07-29T04:29:20;16.10;99.90
15127;DHT22;7664;52.008;4.748;2022-07-29T04:31:48;15.90;99.90
15127;DHT22;7664;52.008;4.748;2022-07-29T04:34:16;15.90;99.90
15127;DHT22;7664;52.008;4.748;2022-07-29T04:36:45;15.90;99.90
15127;DHT22;7664;52.008;4.748;2022-07-29T04:39:14;15.90;99.90
15127;DHT22;7664;52.008;4.748;2022-07-29T04:41:49;15.90;99.90
15127;DHT22;7664;52.008;4.748;2022-07-29T04:44:18;15.90;99.90
15127;DHT22;7664;52.008;4.748;2022-07-29T04:46:46;16.00;99.90
15127;DHT22;7664;52.008;4.748;2022-07-29T04:49:14;15.80;99.90
15127;DHT22;7664;52.008;4.748;2022-07-29T04:51:42;16.00;99.90
15127;DHT22;7664;52.008;4.748;2022-07-29T04:54:10;16.00;99.90
15127;DHT22;7664;52.008;4.748;2022-07-29T04:56:39;16.10;99.90
15127;DHT22;7664;52.008;4.748;2022-07-29T04:59:08;16.00;99.90
15127;DHT22;7664;52.008;4.748;2022-07-29T05:01:38;16.00;99.90
15127;DHT22;7664;52.008;4.748;2022-07-29T05:04:06;16.00;99.90
15127;DHT22;7664;52.008;4.748;2022-07-29T05:06:34;16.00;99.90
15127;DHT22;7664;52.008;4.748;2022-07-29T05:09:02;16.40;99.90
15127;DHT22;7664;52.008;4.748;2022-07-29T05:11:30;16.00;99.90
15127;DHT22;7664;52.008;4.748;2022-07-29T05:14:00;16.10;99.90
15127;DHT22;7664;52.008;4.748;2022-07-29T05:16:28;16.40;99.90
15127;DHT22;7664;52.008;4.748;2022-07-29T05:18:56;16.10;99.90
15127;DHT22;7664;52.008;4.748;2022-07-29T05:21:24;16.20;99.90
15127;DHT22;7664;52.008;4.748;2022-07-29T05:23:52;16.20;99.90
15127;DHT22;7664;52.008;4.748;2022-07-29T05:26:20;16.30;99.90
15127;DHT22;7664;52.008;4.748;2022-07-29T05:28:49;16.30;99.90
15127;DHT22;7664;52.008;4.748;2022-07-29T05:31:18;16.70;99.90
15127;DHT22;7664;52.008;4.748;2022-07-29T05:33:46;16.30;99.90
15127;DHT22;7664;52.008;4.748;2022-07-29T05:36:14;16.40;99.90
15127;DHT22;7664;52.008;4.748;2022-07-29T05:38:42;16.40;99.90
15127;DHT22;7664;52.008;4.748;2022-07-29T05:41:10;16.30;99.90
15127;DHT22;7664;52.008;4.748;2022-07-29T05:43:38;16.30;99.90
15127;DHT22;7664;52.008;4.748;2022-07-29T05:46:06;16.60;99.90
15127;DHT22;7664;52.008;4.748;2022-07-29T05:48:35;16.50;99.90
15127;DHT22;7664;52.008;4.748;2022-07-29T05:51:04;16.40;99.90
15127;DHT22;7664;52.008;4.748;2022-07-29T05:53:32;16.30;99.90
15127;DHT22;7664;52.008;4.748;2022-07-29T05:56:03;16.50;99.90
15127;DHT22;7664;52.008;4.748;2022-07-29T05:58:31;16.50;99.90
15127;DHT22;7664;52.008;4.748;2022-07-29T06:00:59;16.60;99.90
15127;DHT22;7664;52.008;4.748;2022-07-29T06:03:27;16.70;99.90
15127;DHT22;7664;52.008;4.748;2022-07-29T06:05:57;16.80;99.90
15127;DHT22;7664;52.008;4.748;2022-07-29T06:08:25;17.10;99.90
15127;DHT22;7664;52.008;4.748;2022-07-29T06:10:54;17.40;99.90
15127;DHT22;7664;52.008;4.748;2022-07-29T06:13:23;18.30;99.90
15127;DHT22;7664;52.008;4.748;2022-07-29T06:15:51;18.50;99.90
15127;DHT22;7664;52.008;4.748;2022-07-29T06:18:19;19.00;99.90
15127;DHT22;7664;52.008;4.748;2022-07-29T06:20:47;19.50;99.90
15127;DHT22;7664;52.008;4.748;2022-07-29T06:23:16;20.20;99.90
15127;DHT22;7664;52.008;4.748;2022-07-29T06:25:44;20.50;99.90
15127;DHT22;7664;52.008;4.748;2022-07-29T06:28:12;21.00;99.90
15127;DHT22;7664;52.008;4.748;2022-07-29T06:30:40;21.50;99.90
15127;DHT22;7664;52.008;4.748;2022-07-29T06:33:08;21.90;99.90
15127;DHT22;7664;52.008;4.748;2022-07-29T06:35:36;22.00;99.90
15127;DHT22;7664;52.008;4.748;2022-07-29T06:38:08;22.00;99.90
15127;DHT22;7664;52.008;4.748;2022-07-29T06:40:57;22.00;99.90
15127;DHT22;7664;52.008;4.748;2022-07-29T06:43:31;22.30;99.90
15127;DHT22;7664;52.008;4.748;2022-07-29T06:46:02;22.60;99.90
15127;DHT22;7664;52.008;4.748;2022-07-29T06:48:30;23.40;99.90
15127;DHT22;7664;52.008;4.748;2022-07-29T06:50:58;24.10;99.90
15127;DHT22;7664;52.008;4.748;2022-07-29T06:53:27;24.20;97.90
15127;DHT22;7664;52.008;4.748;2022-07-29T06:55:56;24.60;96.20
15127;DHT22;7664;52.008;4.748;2022-07-29T06:58:25;24.40;94.50
15127;DHT22;7664;52.008;4.748;2022-07-29T07:00:53;24.60;94.60
15127;DHT22;7664;52.008;4.748;2022-07-29T07:03:21;24.50;92.70
15127;DHT22;7664;52.008;4.748;2022-07-29T07:05:51;24.10;93.20
15127;DHT22;7664;52.008;4.748;2022-07-29T07:08:20;23.80;91.10
15127;DHT22;7664;52.008;4.748;2022-07-29T07:10:49;23.30;92.20
15127;DHT22;7664;52.008;4.748;2022-07-29T07:13:18;22.70;91.70
15127;DHT22;7664;52.008;4.748;2022-07-29T07:15:46;22.40;93.80
15127;DHT22;7664;52.008;4.748;2022-07-29T07:18:15;22.10;94.30
15127;DHT22;7664;52.008;4.748;2022-07-29T07:20:44;21.90;94.40
15127;DHT22;7664;52.008;4.748;2022-07-29T07:23:12;21.60;95.10
15127;DHT22;7664;52.008;4.748;2022-07-29T07:25:40;21.50;96.10
15127;DHT22;7664;52.008;4.748;2022-07-29T07:28:08;21.60;95.80
15127;DHT22;7664;52.008;4.748;2022-07-29T07:30:38;21.60;96.90
15127;DHT22;7664;52.008;4.748;2022-07-29T07:33:06;21.70;97.10
15127;DHT22;7664;52.008;4.748;2022-07-29T07:35:34;21.90;96.30
15127;DHT22;7664;52.008;4.748;2022-07-29T07:38:02;21.90;96.60
15127;DHT22;7664;52.008;4.748;2022-07-29T07:40:32;21.90;97.40
15127;DHT22;7664;52.008;4.748;2022-07-29T07:43:00;22.00;97.20
15127;DHT22;7664;52.008;4.748;2022-07-29T07:45:28;22.30;97.90
15127;DHT22;7664;52.008;4.748;2022-07-29T07:48:00;22.40;96.60
15127;DHT22;7664;52.008;4.748;2022-07-29T07:50:29;22.50;96.40
15127;DHT22;7664;52.008;4.748;2022-07-29T07:52:57;23.10;98.50
15127;DHT22;7664;52.008;4.748;2022-07-29T07:55:25;23.60;95.10
15127;DHT22;7664;52.008;4.748;2022-07-29T07:57:54;23.90;94.60
15127;DHT22;7664;52.008;4.748;2022-07-29T08:00:22;23.90;94.00
15127;DHT22;7664;52.008;4.748;2022-07-29T08:02:50;24.00;92.10
15127;DHT22;7664;52.008;4.748;2022-07-29T08:05:20;24.00;92.40
15127;DHT22;7664;52.008;4.748;2022-07-29T08:07:48;24.20;91.70
15127;DHT22;7664;52.008;4.748;2022-07-29T08:10:17;24.50;93.50
15127;DHT22;7664;52.008;4.748;2022-07-29T08:13:07;25.00;92.70
15127;DHT22;7664;52.008;4.748;2022-07-29T08:15:35;25.60;86.50
15127;DHT22;7664;52.008;4.748;2022-07-29T08:18:03;25.70;90.00
15127;DHT22;7664;52.008;4.748;2022-07-29T08:20:36;26.30;90.10
15127;DHT22;7664;52.008;4.748;2022-07-29T08:23:07;26.10;83.30
15127;DHT22;7664;52.008;4.748;2022-07-29T08:25:36;26.20;84.50
15127;DHT22;7664;52.008;4.748;2022-07-29T08:28:06;26.50;86.50
15127;DHT22;7664;52.008;4.748;2022-07-29T08:30:34;26.30;81.50
15127;DHT22;7664;52.008;4.748;2022-07-29T08:33:02;26.10;80.90
15127;DHT22;7664;52.008;4.748;2022-07-29T08:35:30;25.30;78.80
15127;DHT22;7664;52.008;4.748;2022-07-29T08:38:03;24.40;77.20
15127;DHT22;7664;52.008;4.748;2022-07-29T08:40:31;24.20;79.20
15127;DHT22;7664;52.008;4.748;2022-07-29T08:43:03;24.20;81.00
15127;DHT22;7664;52.008;4.748;2022-07-29T08:45:41;24.60;85.30
15127;DHT22;7664;52.008;4.748;2022-07-29T08:48:14;25.00;80.20
15127;DHT22;7664;52.008;4.748;2022-07-29T08:50:43;25.00;81.90
15127;DHT22;7664;52.008;4.748;2022-07-29T08:53:15;24.90;78.40
15127;DHT22;7664;52.008;4.748;2022-07-29T08:55:44;24.60;80.30
15127;DHT22;7664;52.008;4.748;2022-07-29T08:58:14;24.70;83.10
15127;DHT22;7664;52.008;4.748;2022-07-29T09:00:46;24.90;81.90
15127;DHT22;7664;52.008;4.748;2022-07-29T09:03:18;25.20;81.30
15127;DHT22;7664;52.008;4.748;2022-07-29T09:05:47;25.20;81.90
15127;DHT22;7664;52.008;4.748;2022-07-29T09:08:17;25.60;83.20
15127;DHT22;7664;52.008;4.748;2022-07-29T09:10:45;25.40;79.50
15127;DHT22;7664;52.008;4.748;2022-07-29T09:13:13;25.00;78.60
15127;DHT22;7664;52.008;4.748;2022-07-29T09:15:41;24.80;78.00
15127;DHT22;7664;52.008;4.748;2022-07-29T09:18:09;24.40;80.10
15127;DHT22;7664;52.008;4.748;2022-07-29T09:20:56;24.20;80.60
15127;DHT22;7664;52.008;4.748;2022-07-29T09:23:59;24.40;81.70
15127;DHT22;7664;52.008;4.748;2022-07-29T09:26:28;24.40;79.30
15127;DHT22;7664;52.008;4.748;2022-07-29T09:28:56;24.10;80.60
15127;DHT22;7664;52.008;4.748;2022-07-29T09:31:33;23.90;82.10
15127;DHT22;7664;52.008;4.748;2022-07-29T09:34:03;23.70;80.70
15127;DHT22;7664;52.008;4.748;2022-07-29T09:36:30;23.30;81.50
15127;DHT22;7664;52.008;4.748;2022-07-29T09:39:02;23.30;82.20
15127;DHT22;7664;52.008;4.748;2022-07-29T09:41:30;23.30;83.60
15127;DHT22;7664;52.008;4.748;2022-07-29T09:44:11;23.40;84.20
15127;DHT22;7664;52.008;4.748;2022-07-29T09:46:38;23.60;86.00
15127;DHT22;7664;52.008;4.748;2022-07-29T09:49:09;23.80;86.20
15127;DHT22;7664;52.008;4.748;2022-07-29T09:51:38;23.90;83.10
15127;DHT22;7664;52.008;4.748;2022-07-29T09:54:23;24.10;84.60
15127;DHT22;7664;52.008;4.748;2022-07-29T09:56:53;24.60;83.70
15127;DHT22;7664;52.008;4.748;2022-07-29T09:59:22;24.80;82.00
15127;DHT22;7664;52.008;4.748;2022-07-29T10:01:53;24.70;81.10
15127;DHT22;7664;52.008;4.748;2022-07-29T10:04:21;24.50;81.00
15127;DHT22;7664;52.008;4.748;2022-07-29T10:06:57;24.50;81.50
15127;DHT22;7664;52.008;4.748;2022-07-29T10:09:32;24.50;81.40
15127;DHT22;7664;52.008;4.748;2022-07-29T10:12:06;24.70;82.50
15127;DHT22;7664;52.008;4.748;2022-07-29T10:14:35;24.80;81.00
15127;DHT22;7664;52.008;4.748;2022-07-29T10:17:04;24.80;81.90
15127;DHT22;7664;52.008;4.748;2022-07-29T10:19:34;24.70;81.30
15127;DHT22;7664;52.008;4.748;2022-07-29T10:22:04;24.70;81.60
15127;DHT22;7664;52.008;4.748;2022-07-29T10:24:33;24.70;81.80
15127;DHT22;7664;52.008;4.748;2022-07-29T10:27:03;24.90;82.70
15127;DHT22;7664;52.008;4.748;2022-07-29T10:29:32;25.20;82.60
15127;DHT22;7664;52.008;4.748;2022-07-29T10:32:25;25.00;81.30
15127;DHT22;7664;52.008;4.748;2022-07-29T10:38:02;25.00;81.10
15127;DHT22;7664;52.008;4.748;2022-07-29T10:40:40;25.00;78.50
15127;DHT22;7664;52.008;4.748;2022-07-29T10:43:33;24.90;79.00
15127;DHT22;7664;52.008;4.748;2022-07-29T10:46:04;25.00;80.20
15127;DHT22;7664;52.008;4.748;2022-07-29T10:48:33;25.20;78.50
15127;DHT22;7664;52.008;4.748;2022-07-29T10:51:04;25.00;78.00
15127;DHT22;7664;52.008;4.748;2022-07-29T10:53:49;24.90;78.00
15127;DHT22;7664;52.008;4.748;2022-07-29T10:56:26;24.80;80.40
15127;DHT22;7664;52.008;4.748;2022-07-29T11:02:02;24.90;77.50
15127;DHT22;7664;52.008;4.748;2022-07-29T11:05:12;24.90;80.60
15127;DHT22;7664;52.008;4.748;2022-07-29T11:13:50;24.90;78.30
15127;DHT22;7664;52.008;4.748;2022-07-29T11:16:21;24.70;77.90
15127;DHT22;7664;52.008;4.748;2022-07-29T11:19:22;24.60;77.30
15127;DHT22;7664;52.008;4.748;2022-07-29T11:21:56;24.50;78.10
15127;DHT22;7664;52.008;4.748;2022-07-29T11:24:25;24.50;78.30
15127;DHT22;7664;52.008;4.748;2022-07-29T11:27:13;24.50;79.20
15127;DHT22;7664;52.008;4.748;2022-07-29T11:29:54;24.50;76.90
15127;DHT22;7664;52.008;4.748;2022-07-29T11:32:25;24.40;78.00
15127;DHT22;7664;52.008;4.748;2022-07-29T11:35:16;24.40;79.20
15127;DHT22;7664;52.008;4.748;2022-07-29T11:38:27;24.30;80.20
15127;DHT22;7664;52.008;4.748;2022-07-29T11:41:20;24.50;79.50
15127;DHT22;7664;52.008;4.748;2022-07-29T11:43:50;24.50;78.60
15127;DHT22;7664;52.008;4.748;2022-07-29T11:46:47;24.60;80.50
15127;DHT22;7664;52.008;4.748;2022-07-29T11:49:19;24.70;79.60
15127;DHT22;7664;52.008;4.748;2022-07-29T11:51:59;24.60;79.30
15127;DHT22;7664;52.008;4.748;2022-07-29T11:54:31;24.60;80.50
15127;DHT22;7664;52.008;4.748;2022-07-29T11:57:20;24.70;79.90
15127;DHT22;7664;52.008;4.748;2022-07-29T12:00:05;24.70;81.20
15127;DHT22;7664;52.008;4.748;2022-07-29T12:02:40;24.90;81.70
15127;DHT22;7664;52.008;4.748;2022-07-29T12:05:14;25.00;80.70
15127;DHT22;7664;52.008;4.748;2022-07-29T12:08:10;24.90;77.80
15127;DHT22;7664;52.008;4.748;2022-07-29T12:10:41;24.80;79.00
15127;DHT22;7664;52.008;4.748;2022-07-29T12:13:10;24.80;75.90
15127;DHT22;7664;52.008;4.748;2022-07-29T12:15:38;24.80;76.90
15127;DHT22;7664;52.008;4.748;2022-07-29T12:18:17;24.90;77.10
15127;DHT22;7664;52.008;4.748;2022-07-29T12:20:57;24.80;77.80
15127;DHT22;7664;52.008;4.748;2022-07-29T12:23:29;25.00;77.60
15127;DHT22;7664;52.008;4.748;2022-07-29T12:26:03;25.00;76.30
15127;DHT22;7664;52.008;4.748;2022-07-29T12:28:37;25.00;76.00
15127;DHT22;7664;52.008;4.748;2022-07-29T12:31:13;25.10;77.50
15127;DHT22;7664;52.008;4.748;2022-07-29T12:34:02;25.20;77.00
15127;DHT22;7664;52.008;4.748;2022-07-29T12:36:30;25.20;76.90
15127;DHT22;7664;52.008;4.748;2022-07-29T12:38:58;25.20;76.80
15127;DHT22;7664;52.008;4.748;2022-07-29T12:41:27;25.30;76.70
15127;DHT22;7664;52.008;4.748;2022-07-29T12:43:55;25.30;76.70
15127;DHT22;7664;52.008;4.748;2022-07-29T12:46:23;25.30;77.50
15127;DHT22;7664;52.008;4.748;2022-07-29T12:48:52;25.30;75.80
15127;DHT22;7664;52.008;4.748;2022-07-29T12:51:29;25.30;75.40
15127;DHT22;7664;52.008;4.748;2022-07-29T12:54:06;25.20;73.80
15127;DHT22;7664;52.008;4.748;2022-07-29T12:56:35;25.30;75.30
15127;DHT22;7664;52.008;4.748;2022-07-29T12:59:12;25.20;71.30
15127;DHT22;7664;52.008;4.748;2022-07-29T13:01:40;25.00;72.10
15127;DHT22;7664;52.008;4.748;2022-07-29T13:04:08;25.00;73.50
15127;DHT22;7664;52.008;4.748;2022-07-29T13:06:39;24.90;72.10
15127;DHT22;7664;52.008;4.748;2022-07-29T13:09:13;25.00;72.00
15127;DHT22;7664;52.008;4.748;2022-07-29T13:11:43;25.20;74.20
15127;DHT22;7664;52.008;4.748;2022-07-29T13:14:29;25.20;72.70
15127;DHT22;7664;52.008;4.748;2022-07-29T13:17:02;25.30;72.70
15127;DHT22;7664;52.008;4.748;2022-07-29T13:19:38;25.30;72.30
15127;DHT22;7664;52.008;4.748;2022-07-29T13:22:09;25.30;71.10
15127;DHT22;7664;52.008;4.748;2022-07-29T13:24:48;25.30;71.00
15127;DHT22;7664;52.008;4.748;2022-07-29T13:27:17;25.30;69.70
15127;DHT22;7664;52.008;4.748;2022-07-29T13:29:45;25.40;69.40
15127;DHT22;7664;52.008;4.748;2022-07-29T13:32:13;25.30;67.70
15127;DHT22;7664;52.008;4.748;2022-07-29T13:34:42;25.40;69.70
15127;DHT22;7664;52.008;4.748;2022-07-29T13:37:11;25.40;68.40
15127;DHT22;7664;52.008;4.748;2022-07-29T13:39:39;25.30;66.40
15127;DHT22;7664;52.008;4.748;2022-07-29T13:42:18;25.40;67.20
15127;DHT22;7664;52.008;4.748;2022-07-29T13:44:46;25.30;65.50
15127;DHT22;7664;52.008;4.748;2022-07-29T13:47:15;25.30;66.10
15127;DHT22;7664;52.008;4.748;2022-07-29T13:49:43;25.40;66.50
15127;DHT22;7664;52.008;4.748;2022-07-29T13:52:12;25.40;63.00
15127;DHT22;7664;52.008;4.748;2022-07-29T13:54:41;25.30;62.70
15127;DHT22;7664;52.008;4.748;2022-07-29T13:57:09;25.20;63.90
15127;DHT22;7664;52.008;4.748;2022-07-29T13:59:38;25.20;65.30
15127;DHT22;7664;52.008;4.748;2022-07-29T14:02:07;25.20;65.10
15127;DHT22;7664;52.008;4.748;2022-07-29T14:04:35;25.20;64.40
15127;DHT22;7664;52.008;4.748;2022-07-29T14:07:06;25.20;64.20
15127;DHT22;7664;52.008;4.748;2022-07-29T14:09:35;25.20;64.60
15127;DHT22;7664;52.008;4.748;2022-07-29T14:12:08;25.30;65.50
15127;DHT22;7664;52.008;4.748;2022-07-29T14:14:36;25.40;65.00
15127;DHT22;7664;52.008;4.748;2022-07-29T14:17:04;25.50;65.30
15127;DHT22;7664;52.008;4.748;2022-07-29T14:19:34;25.60;65.60
15127;DHT22;7664;52.008;4.748;2022-07-29T14:22:04;25.50;63.70
15127;DHT22;7664;52.008;4.748;2022-07-29T14:24:32;25.50;63.30
15127;DHT22;7664;52.008;4.748;2022-07-29T14:27:05;25.40;63.80
15127;DHT22;7664;52.008;4.748;2022-07-29T14:29:34;25.40;64.00
15127;DHT22;7664;52.008;4.748;2022-07-29T14:32:04;25.40;63.90
15127;DHT22;7664;52.008;4.748;2022-07-29T14:34:33;25.50;63.60
15127;DHT22;7664;52.008;4.748;2022-07-29T14:37:01;25.50;62.40
15127;DHT22;7664;52.008;4.748;2022-07-29T14:39:29;25.50;62.40
15127;DHT22;7664;52.008;4.748;2022-07-29T14:41:58;25.50;61.70
15127;DHT22;7664;52.008;4.748;2022-07-29T14:44:28;25.50;61.10
15127;DHT22;7664;52.008;4.748;2022-07-29T14:46:58;25.50;61.50
15127;DHT22;7664;52.008;4.748;2022-07-29T14:49:33;25.50;61.80
15127;DHT22;7664;52.008;4.748;2022-07-29T14:52:01;25.40;61.60
15127;DHT22;7664;52.008;4.748;2022-07-29T14:54:29;25.40;60.80
15127;DHT22;7664;52.008;4.748;2022-07-29T14:56:57;25.40;62.00
15127;DHT22;7664;52.008;4.748;2022-07-29T14:59:25;25.50;62.10
15127;DHT22;7664;52.008;4.748;2022-07-29T15:01:54;25.50;61.90
15127;DHT22;7664;52.008;4.748;2022-07-29T15:04:22;25.40;62.40
15127;DHT22;7664;52.008;4.748;2022-07-29T15:06:50;25.40;63.80
15127;DHT22;7664;52.008;4.748;2022-07-29T15:09:18;25.40;63.60
15127;DHT22;7664;52.008;4.748;2022-07-29T15:11:46;25.40;64.40
15127;DHT22;7664;52.008;4.748;2022-07-29T15:14:14;25.50;64.90
15127;DHT22;7664;52.008;4.748;2022-07-29T15:16:42;25.60;63.70
15127;DHT22;7664;52.008;4.748;2022-07-29T15:19:15;25.70;64.20
15127;DHT22;7664;52.008;4.748;2022-07-29T15:21:43;25.70;63.00
15127;DHT22;7664;52.008;4.748;2022-07-29T15:24:25;25.80;63.20
15127;DHT22;7664;52.008;4.748;2022-07-29T15:26:53;25.70;62.40
15127;DHT22;7664;52.008;4.748;2022-07-29T15:29:21;25.70;60.20
15127;DHT22;7664;52.008;4.748;2022-07-29T15:31:49;25.60;59.00
15127;DHT22;7664;52.008;4.748;2022-07-29T15:34:18;25.50;60.80
15127;DHT22;7664;52.008;4.748;2022-07-29T15:36:50;25.50;60.30
15127;DHT22;7664;52.008;4.748;2022-07-29T15:39:20;25.50;59.60
15127;DHT22;7664;52.008;4.748;2022-07-29T15:41:48;25.50;59.60
15127;DHT22;7664;52.008;4.748;2022-07-29T15:44:16;25.30;58.80
15127;DHT22;7664;52.008;4.748;2022-07-29T15:46:46;25.30;59.60
15127;DHT22;7664;52.008;4.748;2022-07-29T15:49:31;25.30;59.50
15127;DHT22;7664;52.008;4.748;2022-07-29T15:52:16;25.30;59.60
15127;DHT22;7664;52.008;4.748;2022-07-29T15:54:52;25.30;59.10
15127;DHT22;7664;52.008;4.748;2022-07-29T15:57:20;25.40;58.60
15127;DHT22;7664;52.008;4.748;2022-07-29T15:59:48;25.40;59.30
15127;DHT22;7664;52.008;4.748;2022-07-29T16:02:17;25.50;59.40
15127;DHT22;7664;52.008;4.748;2022-07-29T16:04:47;25.50;57.40
15127;DHT22;7664;52.008;4.748;2022-07-29T16:07:15;25.40;57.00
15127;DHT22;7664;52.008;4.748;2022-07-29T16:09:43;25.30;57.50
15127;DHT22;7664;52.008;4.748;2022-07-29T16:12:18;25.40;56.80
15127;DHT22;7664;52.008;4.748;2022-07-29T16:14:46;25.40;57.90
15127;DHT22;7664;52.008;4.748;2022-07-29T16:17:15;25.50;57.00
15127;DHT22;7664;52.008;4.748;2022-07-29T16:19:43;25.50;57.00
15127;DHT22;7664;52.008;4.748;2022-07-29T16:22:13;25.50;56.50
15127;DHT22;7664;52.008;4.748;2022-07-29T16:24:41;25.40;56.30